Archival Weather

Westchester County

White Plains, New York (KHPN)

Report from: Friday, February 23, 2024 4:56 PM EST
Current time: Wednesday, May 29, 2024 8:52 PM EDT

Current weather – Weather history – Daily summaries
Weather forecast

Temperature6.7°C (44.1°F)
Wind chill4.2°C (39.5°F)
Dew point2.8°C (37.0°F)
Winds 7 kts (3.6 m/s, 8.1 mph) North-Northwest (340°)
Visibility10 mi. (16.1 km)
Clouds Sky clear
Altimeter29.43 in.Hg (997 mB)
Relative humidity76 %
Density altitude-336 ft. (-102 m)
Sea-level pressure99.7 kPa (997 mB, 29.44 in.Hg)
Remarks Automated weather observing station with precipitation discriminator
Flight conditions Visual Meteorological Conditions
Raw dataKHPN 232156Z 34007KT 10SM CLR 07/03 A2943 RMK AO2 SLP971 T00670028
An error has occurred. This application may no longer respond until reloaded. Reload 🗙